sensor_id;sensor_type;location;lat;lon;timestamp;pressure;altitude;pressure_sealevel;temperature;humidity
77572;BME280;67214;47.454;18.966;2023-10-13T00:00:36;100404.94;;;14.52;91.86
77572;BME280;67214;47.454;18.966;2023-10-13T00:03:06;100398.69;;;14.48;92.23
77572;BME280;67214;47.454;18.966;2023-10-13T00:05:35;100398.00;;;14.46;92.33
77572;BME280;67214;47.454;18.966;2023-10-13T00:08:04;100408.12;;;14.42;92.56
77572;BME280;67214;47.454;18.966;2023-10-13T00:10:32;100409.03;;;14.37;92.54
77572;BME280;67214;47.454;18.966;2023-10-13T00:13:03;100412.45;;;14.33;93.12
77572;BME280;67214;47.454;18.966;2023-10-13T00:15:45;100409.35;;;14.28;93.21
77572;BME280;67214;47.454;18.966;2023-10-13T00:18:15;100417.23;;;14.30;93.28
77572;BME280;67214;47.454;18.966;2023-10-13T00:20:44;100412.73;;;14.30;93.40
77572;BME280;67214;47.454;18.966;2023-10-13T00:23:17;100414.56;;;14.30;93.40
77572;BME280;67214;47.454;18.966;2023-10-13T00:25:48;100413.46;;;14.42;93.23
77572;BME280;67214;47.454;18.966;2023-10-13T00:28:28;100421.53;;;14.46;92.79
77572;BME280;67214;47.454;18.966;2023-10-13T00:31:14;100409.59;;;14.50;92.32
77572;BME280;67214;47.454;18.966;2023-10-13T00:33:41;100415.70;;;14.47;92.51
77572;BME280;67214;47.454;18.966;2023-10-13T00:36:09;100412.12;;;14.42;92.51
77572;BME280;67214;47.454;18.966;2023-10-13T00:38:38;100405.88;;;14.37;92.54
77572;BME280;67214;47.454;18.966;2023-10-13T00:41:06;100404.09;;;14.32;92.49
77572;BME280;67214;47.454;18.966;2023-10-13T00:43:47;100406.00;;;14.26;92.54
77572;BME280;67214;47.454;18.966;2023-10-13T00:46:17;100409.22;;;14.20;92.69
77572;BME280;67214;47.454;18.966;2023-10-13T00:48:45;100405.14;;;14.16;92.84
77572;BME280;67214;47.454;18.966;2023-10-13T00:51:15;100406.05;;;14.11;93.01
77572;BME280;67214;47.454;18.966;2023-10-13T00:53:44;100404.52;;;14.09;93.19
77572;BME280;67214;47.454;18.966;2023-10-13T00:56:17;100415.47;;;14.06;93.28
77572;BME280;67214;47.454;18.966;2023-10-13T00:58:46;100411.32;;;13.98;93.58
77572;BME280;67214;47.454;18.966;2023-10-13T01:01:16;100410.16;;;13.90;93.81
77572;BME280;67214;47.454;18.966;2023-10-13T01:03:49;100404.27;;;13.87;94.01
77572;BME280;67214;47.454;18.966;2023-10-13T01:06:19;100405.77;;;13.85;94.30
77572;BME280;67214;47.454;18.966;2023-10-13T01:08:48;100402.86;;;13.83;94.47
77572;BME280;67214;47.454;18.966;2023-10-13T01:11:19;100403.35;;;13.82;94.65
77572;BME280;67214;47.454;18.966;2023-10-13T01:13:48;100407.22;;;13.84;94.85
77572;BME280;67214;47.454;18.966;2023-10-13T01:16:18;100403.91;;;13.86;94.84
77572;BME280;67214;47.454;18.966;2023-10-13T01:18:48;100391.59;;;13.85;94.74
77572;BME280;67214;47.454;18.966;2023-10-13T01:21:18;100392.56;;;13.84;94.86
77572;BME280;67214;47.454;18.966;2023-10-13T01:23:47;100400.27;;;13.87;95.20
77572;BME280;67214;47.454;18.966;2023-10-13T01:26:16;100394.66;;;13.90;95.17
77572;BME280;67214;47.454;18.966;2023-10-13T01:28:45;100392.91;;;13.94;95.18
77572;BME280;67214;47.454;18.966;2023-10-13T01:31:14;100392.66;;;13.98;95.12
77572;BME280;67214;47.454;18.966;2023-10-13T01:33:43;100391.81;;;13.97;94.97
77572;BME280;67214;47.454;18.966;2023-10-13T01:36:11;100398.47;;;13.97;94.72
77572;BME280;67214;47.454;18.966;2023-10-13T01:41:06;100394.33;;;14.08;93.97
77572;BME280;67214;47.454;18.966;2023-10-13T01:43:35;100387.86;;;14.11;93.76
77572;BME280;67214;47.454;18.966;2023-10-13T01:46:02;100394.20;;;14.10;93.83
77572;BME280;67214;47.454;18.966;2023-10-13T01:48:30;100395.66;;;14.08;93.70
77572;BME280;67214;47.454;18.966;2023-10-13T01:51:02;100396.02;;;14.09;93.84
77572;BME280;67214;47.454;18.966;2023-10-13T01:53:32;100407.30;;;14.07;93.84
77572;BME280;67214;47.454;18.966;2023-10-13T01:55:59;100401.61;;;14.06;93.85
77572;BME280;67214;47.454;18.966;2023-10-13T01:58:28;100410.39;;;14.03;93.92
77572;BME280;67214;47.454;18.966;2023-10-13T02:00:55;100408.98;;;13.98;94.12
77572;BME280;67214;47.454;18.966;2023-10-13T02:03:23;100406.80;;;13.98;94.14
77572;BME280;67214;47.454;18.966;2023-10-13T02:05:50;100402.96;;;13.96;94.19
77572;BME280;67214;47.454;18.966;2023-10-13T02:08:21;100406.73;;;13.94;94.22
77572;BME280;67214;47.454;18.966;2023-10-13T02:10:50;100397.55;;;13.92;94.36
77572;BME280;67214;47.454;18.966;2023-10-13T02:13:19;100402.89;;;13.92;94.56
77572;BME280;67214;47.454;18.966;2023-10-13T02:15:49;100396.06;;;13.94;94.68
77572;BME280;67214;47.454;18.966;2023-10-13T02:18:22;100401.62;;;13.96;94.71
77572;BME280;67214;47.454;18.966;2023-10-13T02:21:01;100405.47;;;13.98;94.74
77572;BME280;67214;47.454;18.966;2023-10-13T02:23:27;100412.37;;;14.01;94.84
77572;BME280;67214;47.454;18.966;2023-10-13T02:25:56;100403.03;;;14.01;94.85
77572;BME280;67214;47.454;18.966;2023-10-13T02:28:29;100402.31;;;13.98;94.87
77572;BME280;67214;47.454;18.966;2023-10-13T02:31:02;100404.50;;;13.99;94.86
77572;BME280;67214;47.454;18.966;2023-10-13T02:33:31;100404.50;;;13.99;94.85
77572;BME280;67214;47.454;18.966;2023-10-13T02:36:00;100411.80;;;13.97;94.78
77572;BME280;67214;47.454;18.966;2023-10-13T02:38:30;100416.42;;;13.95;94.78
77572;BME280;67214;47.454;18.966;2023-10-13T02:41:02;100411.94;;;13.95;94.84
77572;BME280;67214;47.454;18.966;2023-10-13T02:43:36;100421.27;;;13.95;94.89
77572;BME280;67214;47.454;18.966;2023-10-13T02:46:04;100417.14;;;13.97;94.97
77572;BME280;67214;47.454;18.966;2023-10-13T02:48:32;100410.48;;;13.97;94.89
77572;BME280;67214;47.454;18.966;2023-10-13T02:51:09;100414.80;;;13.98;94.83
77572;BME280;67214;47.454;18.966;2023-10-13T02:53:48;100424.37;;;14.01;94.87
77572;BME280;67214;47.454;18.966;2023-10-13T02:59:03;100442.21;;;14.10;94.69
77572;BME280;67214;47.454;18.966;2023-10-13T03:01:35;100445.28;;;14.15;94.45
77572;BME280;67214;47.454;18.966;2023-10-13T03:04:04;100452.51;;;14.18;94.20
77572;BME280;67214;47.454;18.966;2023-10-13T03:06:33;100448.74;;;14.21;94.09
77572;BME280;67214;47.454;18.966;2023-10-13T03:09:03;100449.78;;;14.24;93.80
77572;BME280;67214;47.454;18.966;2023-10-13T03:11:45;100435.83;;;14.26;93.62
77572;BME280;67214;47.454;18.966;2023-10-13T03:16:55;100441.17;;;14.26;93.43
77572;BME280;67214;47.454;18.966;2023-10-13T03:19:24;100435.55;;;14.29;93.06
77572;BME280;67214;47.454;18.966;2023-10-13T03:21:53;100442.28;;;14.33;93.02
77572;BME280;67214;47.454;18.966;2023-10-13T03:24:25;100428.45;;;14.33;93.12
77572;BME280;67214;47.454;18.966;2023-10-13T03:27:04;100432.46;;;14.33;93.19
77572;BME280;67214;47.454;18.966;2023-10-13T03:29:39;100424.33;;;14.35;92.90
77572;BME280;67214;47.454;18.966;2023-10-13T03:32:04;100424.81;;;14.34;92.94
77572;BME280;67214;47.454;18.966;2023-10-13T03:34:36;100424.45;;;14.33;92.77
77572;BME280;67214;47.454;18.966;2023-10-13T03:37:05;100423.67;;;14.27;92.90
77572;BME280;67214;47.454;18.966;2023-10-13T03:39:34;100418.20;;;14.29;93.07
77572;BME280;67214;47.454;18.966;2023-10-13T03:42:01;100408.38;;;14.29;93.31
77572;BME280;67214;47.454;18.966;2023-10-13T03:44:31;100401.22;;;14.30;93.60
77572;BME280;67214;47.454;18.966;2023-10-13T03:46:59;100412.80;;;14.25;94.36
77572;BME280;67214;47.454;18.966;2023-10-13T03:49:28;100391.33;;;14.26;94.47
77572;BME280;67214;47.454;18.966;2023-10-13T03:51:57;100391.52;;;14.29;95.38
77572;BME280;67214;47.454;18.966;2023-10-13T03:54:24;100380.07;;;14.32;95.13
77572;BME280;67214;47.454;18.966;2023-10-13T03:56:53;100394.61;;;14.34;95.31
77572;BME280;67214;47.454;18.966;2023-10-13T03:59:22;100390.25;;;14.33;95.43
77572;BME280;67214;47.454;18.966;2023-10-13T04:01:50;100373.27;;;14.34;95.76
77572;BME280;67214;47.454;18.966;2023-10-13T04:04:19;100383.95;;;14.34;96.07
77572;BME280;67214;47.454;18.966;2023-10-13T04:07:05;100385.28;;;14.34;96.27
77572;BME280;67214;47.454;18.966;2023-10-13T04:09:38;100387.10;;;14.33;96.47
77572;BME280;67214;47.454;18.966;2023-10-13T04:12:16;100376.56;;;14.32;96.64
77572;BME280;67214;47.454;18.966;2023-10-13T04:14:54;100376.42;;;14.33;96.64
77572;BME280;67214;47.454;18.966;2023-10-13T04:17:26;100365.14;;;14.35;97.02
77572;BME280;67214;47.454;18.966;2023-10-13T04:19:58;100376.66;;;14.36;96.94
77572;BME280;67214;47.454;18.966;2023-10-13T04:22:27;100376.30;;;14.35;97.06
77572;BME280;67214;47.454;18.966;2023-10-13T04:25:25;100374.90;;;14.40;96.70
77572;BME280;67214;47.454;18.966;2023-10-13T04:28:11;100376.88;;;14.38;96.75
77572;BME280;67214;47.454;18.966;2023-10-13T04:30:45;100383.03;;;14.29;95.40
77572;BME280;67214;47.454;18.966;2023-10-13T04:33:21;100390.80;;;14.27;96.54
77572;BME280;67214;47.454;18.966;2023-10-13T04:36:12;100383.39;;;14.30;96.94
77572;BME280;67214;47.454;18.966;2023-10-13T04:38:58;100387.95;;;14.34;97.31
77572;BME280;67214;47.454;18.966;2023-10-13T04:41:35;100373.14;;;14.35;97.52
77572;BME280;67214;47.454;18.966;2023-10-13T04:44:11;100382.06;;;14.40;97.67
77572;BME280;67214;47.454;18.966;2023-10-13T04:46:59;100373.50;;;14.36;97.20
77572;BME280;67214;47.454;18.966;2023-10-13T04:49:30;100371.09;;;14.33;96.66
77572;BME280;67214;47.454;18.966;2023-10-13T04:52:04;100376.78;;;14.34;96.90
77572;BME280;67214;47.454;18.966;2023-10-13T04:54:45;100387.95;;;14.34;96.81
77572;BME280;67214;47.454;18.966;2023-10-13T04:57:19;100392.44;;;14.33;96.83
77572;BME280;67214;47.454;18.966;2023-10-13T04:59:54;100383.81;;;14.35;97.10
77572;BME280;67214;47.454;18.966;2023-10-13T05:02:33;100396.67;;;14.36;97.52
77572;BME280;67214;47.454;18.966;2023-10-13T05:05:04;100391.20;;;14.37;97.79
77572;BME280;67214;47.454;18.966;2023-10-13T05:07:42;100396.90;;;14.38;97.95
77572;BME280;67214;47.454;18.966;2023-10-13T05:10:29;100417.59;;;14.40;97.88
77572;BME280;67214;47.454;18.966;2023-10-13T05:13:14;100418.31;;;14.43;97.74
77572;BME280;67214;47.454;18.966;2023-10-13T05:15:59;100402.20;;;14.48;97.69
77572;BME280;67214;47.454;18.966;2023-10-13T05:18:44;100409.10;;;14.51;97.86
77572;BME280;67214;47.454;18.966;2023-10-13T05:21:30;100410.44;;;14.51;98.09
77572;BME280;67214;47.454;18.966;2023-10-13T05:24:15;100423.72;;;14.47;98.22
77572;BME280;67214;47.454;18.966;2023-10-13T05:27:01;100426.09;;;14.50;98.20
77572;BME280;67214;47.454;18.966;2023-10-13T05:29:47;100434.78;;;14.52;98.35
77572;BME280;67214;47.454;18.966;2023-10-13T05:32:33;100436.61;;;14.61;97.83
77572;BME280;67214;47.454;18.966;2023-10-13T05:35:19;100440.80;;;14.63;97.92
77572;BME280;67214;47.454;18.966;2023-10-13T05:38:04;100445.04;;;14.66;97.99
77572;BME280;67214;47.454;18.966;2023-10-13T05:40:57;100453.96;;;14.70;97.72
77572;BME280;67214;47.454;18.966;2023-10-13T05:43:43;100451.55;;;14.77;97.79
77572;BME280;67214;47.454;18.966;2023-10-13T05:46:29;100468.61;;;14.80;97.84
77572;BME280;67214;47.454;18.966;2023-10-13T05:49:08;100467.27;;;14.80;97.90
77572;BME280;67214;47.454;18.966;2023-10-13T05:51:37;100459.75;;;14.79;97.98
77572;BME280;67214;47.454;18.966;2023-10-13T05:54:10;100456.95;;;14.81;98.11
77572;BME280;67214;47.454;18.966;2023-10-13T05:56:43;100477.69;;;14.83;98.35
77572;BME280;67214;47.454;18.966;2023-10-13T05:59:30;100471.83;;;14.83;98.46
77572;BME280;67214;47.454;18.966;2023-10-13T06:02:16;100477.76;;;14.87;98.51
77572;BME280;67214;47.454;18.966;2023-10-13T06:05:03;100482.09;;;14.88;98.51
77572;BME280;67214;47.454;18.966;2023-10-13T06:07:48;100472.48;;;14.91;98.53
77572;BME280;67214;47.454;18.966;2023-10-13T06:10:34;100469.88;;;14.95;98.44
77572;BME280;67214;47.454;18.966;2023-10-13T06:13:19;100477.95;;;14.99;98.24
77572;BME280;67214;47.454;18.966;2023-10-13T06:16:08;100478.55;;;15.07;98.11
77572;BME280;67214;47.454;18.966;2023-10-13T06:18:54;100484.26;;;15.08;97.34
77572;BME280;67214;47.454;18.966;2023-10-13T06:21:39;100481.97;;;15.13;96.33
77572;BME280;67214;47.454;18.966;2023-10-13T06:24:25;100485.25;;;15.20;96.37
77572;BME280;67214;47.454;18.966;2023-10-13T06:27:10;100490.66;;;15.24;96.19
77572;BME280;67214;47.454;18.966;2023-10-13T06:29:55;100491.98;;;15.24;95.38
77572;BME280;67214;47.454;18.966;2023-10-13T06:32:24;100496.39;;;15.39;94.07
77572;BME280;67214;47.454;18.966;2023-10-13T06:34:55;100498.90;;;15.41;94.34
77572;BME280;67214;47.454;18.966;2023-10-13T06:37:25;100508.61;;;15.42;94.34
77572;BME280;67214;47.454;18.966;2023-10-13T06:39:54;100492.80;;;15.44;94.26
77572;BME280;67214;47.454;18.966;2023-10-13T06:42:27;100505.16;;;15.55;93.40
77572;BME280;67214;47.454;18.966;2023-10-13T06:44:55;100501.25;;;15.63;92.73
77572;BME280;67214;47.454;18.966;2023-10-13T06:47:24;100499.13;;;15.66;92.62
77572;BME280;67214;47.454;18.966;2023-10-13T06:49:53;100506.52;;;15.68;92.45
77572;BME280;67214;47.454;18.966;2023-10-13T06:52:23;100501.30;;;15.67;92.64
77572;BME280;67214;47.454;18.966;2023-10-13T06:54:53;100504.03;;;15.71;92.51
77572;BME280;67214;47.454;18.966;2023-10-13T06:57:21;100513.30;;;15.76;92.33
77572;BME280;67214;47.454;18.966;2023-10-13T06:59:49;100520.62;;;15.74;92.33
77572;BME280;67214;47.454;18.966;2023-10-13T07:02:18;100514.34;;;15.79;91.76
77572;BME280;67214;47.454;18.966;2023-10-13T07:04:49;100529.64;;;15.87;91.80
77572;BME280;67214;47.454;18.966;2023-10-13T07:07:27;100525.91;;;15.98;90.21
77572;BME280;67214;47.454;18.966;2023-10-13T07:09:55;100530.45;;;15.97;90.52
77572;BME280;67214;47.454;18.966;2023-10-13T07:12:24;100532.16;;;16.02;90.05
77572;BME280;67214;47.454;18.966;2023-10-13T07:14:56;100530.19;;;16.04;90.67
77572;BME280;67214;47.454;18.966;2023-10-13T07:17:28;100532.02;;;16.04;90.67
77572;BME280;67214;47.454;18.966;2023-10-13T07:19:57;100541.25;;;16.05;91.12
77572;BME280;67214;47.454;18.966;2023-10-13T07:22:26;100543.76;;;16.07;91.73
77572;BME280;67214;47.454;18.966;2023-10-13T07:24:54;100542.91;;;16.06;92.13
77572;BME280;67214;47.454;18.966;2023-10-13T07:27:23;100540.09;;;16.08;92.39
77572;BME280;67214;47.454;18.966;2023-10-13T07:29:52;100537.11;;;16.11;92.50
77572;BME280;67214;47.454;18.966;2023-10-13T07:32:24;100543.00;;;16.14;92.39
77572;BME280;67214;47.454;18.966;2023-10-13T07:34:55;100529.58;;;16.24;92.22
77572;BME280;67214;47.454;18.966;2023-10-13T07:37:24;100533.81;;;16.31;91.95
77572;BME280;67214;47.454;18.966;2023-10-13T07:39:53;100534.97;;;16.42;92.25
77572;BME280;67214;47.454;18.966;2023-10-13T07:42:22;100536.88;;;16.49;92.11
77572;BME280;67214;47.454;18.966;2023-10-13T07:44:49;100543.97;;;16.54;91.37
77572;BME280;67214;47.454;18.966;2023-10-13T07:47:19;100544.71;;;16.60;91.10
77572;BME280;67214;47.454;18.966;2023-10-13T07:49:46;100536.40;;;16.67;90.95
77572;BME280;67214;47.454;18.966;2023-10-13T07:52:15;100541.83;;;16.76;90.44
77572;BME280;67214;47.454;18.966;2023-10-13T07:54:51;100538.91;;;16.83;90.12
77572;BME280;67214;47.454;18.966;2023-10-13T07:57:36;100525.23;;;16.90;89.03
77572;BME280;67214;47.454;18.966;2023-10-13T08:00:06;100529.31;;;16.98;88.28
77572;BME280;67214;47.454;18.966;2023-10-13T08:02:41;100531.53;;;17.02;88.00
77572;BME280;67214;47.454;18.966;2023-10-13T08:05:18;100536.25;;;17.08;87.39
77572;BME280;67214;47.454;18.966;2023-10-13T08:07:53;100528.94;;;17.14;85.94
77572;BME280;67214;47.454;18.966;2023-10-13T08:10:22;100529.66;;;17.25;85.16
77572;BME280;67214;47.454;18.966;2023-10-13T08:12:51;100526.22;;;17.36;85.64
77572;BME280;67214;47.454;18.966;2023-10-13T08:15:21;100534.37;;;17.48;84.67
77572;BME280;67214;47.454;18.966;2023-10-13T08:17:50;100529.60;;;17.60;84.21
77572;BME280;67214;47.454;18.966;2023-10-13T08:20:18;100532.17;;;17.74;82.91
77572;BME280;67214;47.454;18.966;2023-10-13T08:22:47;100530.72;;;17.83;82.04
77572;BME280;67214;47.454;18.966;2023-10-13T08:25:15;100517.48;;;17.90;81.23
77572;BME280;67214;47.454;18.966;2023-10-13T08:27:50;100523.38;;;17.97;80.85
77572;BME280;67214;47.454;18.966;2023-10-13T08:30:35;100527.13;;;18.08;80.31
77572;BME280;67214;47.454;18.966;2023-10-13T08:33:04;100525.33;;;18.21;80.47
77572;BME280;67214;47.454;18.966;2023-10-13T08:35:33;100531.72;;;18.28;80.22
77572;BME280;67214;47.454;18.966;2023-10-13T08:38:04;100524.17;;;18.32;80.06
77572;BME280;67214;47.454;18.966;2023-10-13T08:40:33;100528.06;;;18.41;80.11
77572;BME280;67214;47.454;18.966;2023-10-13T08:43:20;100539.13;;;18.46;79.97
77572;BME280;67214;47.454;18.966;2023-10-13T08:45:50;100541.36;;;18.55;79.29
77572;BME280;67214;47.454;18.966;2023-10-13T08:48:21;100541.57;;;18.66;78.95
77572;BME280;67214;47.454;18.966;2023-10-13T08:50:51;100533.33;;;18.75;78.77
77572;BME280;67214;47.454;18.966;2023-10-13T08:53:26;100543.27;;;18.83;77.78
77572;BME280;67214;47.454;18.966;2023-10-13T08:58:45;100543.27;;;19.07;76.28
77572;BME280;67214;47.454;18.966;2023-10-13T09:04:08;100551.31;;;19.35;75.36
77572;BME280;67214;47.454;18.966;2023-10-13T09:07:01;100549.78;;;19.37;75.11
77572;BME280;67214;47.454;18.966;2023-10-13T09:09:48;100554.16;;;19.42;75.14
77572;BME280;67214;47.454;18.966;2023-10-13T09:12:25;100545.75;;;19.53;75.29
77572;BME280;67214;47.454;18.966;2023-10-13T09:14:55;100531.61;;;19.63;74.36
77572;BME280;67214;47.454;18.966;2023-10-13T09:17:29;100545.20;;;19.70;74.28
77572;BME280;67214;47.454;18.966;2023-10-13T09:20:04;100541.61;;;19.85;73.33
77572;BME280;67214;47.454;18.966;2023-10-13T09:22:54;100538.40;;;19.90;72.27
77572;BME280;67214;47.454;18.966;2023-10-13T09:25:36;100540.41;;;19.96;72.10
77572;BME280;67214;47.454;18.966;2023-10-13T09:28:14;100534.81;;;20.02;72.47
77572;BME280;67214;47.454;18.966;2023-10-13T09:30:48;100527.17;;;20.21;70.94
77572;BME280;67214;47.454;18.966;2023-10-13T09:33:25;100536.02;;;20.34;71.00
77572;BME280;67214;47.454;18.966;2023-10-13T09:36:02;100535.31;;;20.44;70.05
77572;BME280;67214;47.454;18.966;2023-10-13T09:38:28;100537.50;;;20.45;70.47
77572;BME280;67214;47.454;18.966;2023-10-13T09:40:58;100530.06;;;20.47;70.58
77572;BME280;67214;47.454;18.966;2023-10-13T09:43:28;100538.94;;;20.55;69.09
77572;BME280;67214;47.454;18.966;2023-10-13T09:45:59;100535.81;;;20.44;69.34
77572;BME280;67214;47.454;18.966;2023-10-13T09:48:33;100528.16;;;20.55;69.68
77572;BME280;67214;47.454;18.966;2023-10-13T09:51:03;100534.20;;;20.61;69.90
77572;BME280;67214;47.454;18.966;2023-10-13T09:53:32;100539.56;;;20.65;69.50
77572;BME280;67214;47.454;18.966;2023-10-13T09:56:12;100524.80;;;20.76;70.17
77572;BME280;67214;47.454;18.966;2023-10-13T09:58:48;100523.03;;;20.87;69.69
77572;BME280;67214;47.454;18.966;2023-10-13T10:01:19;100527.51;;;20.99;68.76
77572;BME280;67214;47.454;18.966;2023-10-13T10:03:48;100522.51;;;21.14;68.54
77572;BME280;67214;47.454;18.966;2023-10-13T10:06:23;100523.32;;;21.33;67.09
77572;BME280;67214;47.454;18.966;2023-10-13T10:09:08;100518.28;;;21.64;65.69
77572;BME280;67214;47.454;18.966;2023-10-13T10:17:18;100510.62;;;22.47;64.39
77572;BME280;67214;47.454;18.966;2023-10-13T10:19:52;100514.53;;;22.81;63.71
77572;BME280;67214;47.454;18.966;2023-10-13T10:22:32;100495.50;;;23.06;61.86
77572;BME280;67214;47.454;18.966;2023-10-13T10:25:06;100508.02;;;23.24;61.20
77572;BME280;67214;47.454;18.966;2023-10-13T10:27:35;100503.95;;;23.35;62.01
77572;BME280;67214;47.454;18.966;2023-10-13T10:30:03;100492.53;;;23.74;59.68
77572;BME280;67214;47.454;18.966;2023-10-13T10:32:36;100485.42;;;23.90;59.19
77572;BME280;67214;47.454;18.966;2023-10-13T10:35:05;100486.02;;;24.09;59.31
77572;BME280;67214;47.454;18.966;2023-10-13T10:37:34;100485.48;;;24.20;58.38
77572;BME280;67214;47.454;18.966;2023-10-13T10:40:08;100473.80;;;24.26;58.58
77572;BME280;67214;47.454;18.966;2023-10-13T10:42:37;100477.07;;;24.32;57.26
77572;BME280;67214;47.454;18.966;2023-10-13T10:45:10;100470.33;;;24.59;57.47
77572;BME280;67214;47.454;18.966;2023-10-13T10:47:47;100460.14;;;24.74;56.59
77572;BME280;67214;47.454;18.966;2023-10-13T10:50:09;100461.17;;;24.73;56.48
77572;BME280;67214;47.454;18.966;2023-10-13T10:52:38;100461.17;;;24.73;56.48
77572;BME280;67214;47.454;18.966;2023-10-13T10:55:07;100455.24;;;24.99;55.42
77572;BME280;67214;47.454;18.966;2023-10-13T10:57:36;100454.30;;;25.03;55.38
77572;BME280;67214;47.454;18.966;2023-10-13T11:00:23;100442.59;;;25.03;55.26
77572;BME280;67214;47.454;18.966;2023-10-13T11:02:55;100458.90;;;25.09;55.70
77572;BME280;67214;47.454;18.966;2023-10-13T11:05:24;100454.41;;;25.06;55.17
77572;BME280;67214;47.454;18.966;2023-10-13T11:07:53;100454.74;;;25.49;54.04
77572;BME280;67214;47.454;18.966;2023-10-13T11:10:21;100450.75;;;25.64;54.70
77572;BME280;67214;47.454;18.966;2023-10-13T11:13:00;100449.80;;;25.26;53.70
77572;BME280;67214;47.454;18.966;2023-10-13T11:15:41;100449.31;;;25.49;54.77
77572;BME280;67214;47.454;18.966;2023-10-13T11:18:10;100447.78;;;25.37;54.04
77572;BME280;67214;47.454;18.966;2023-10-13T11:20:42;100440.91;;;25.34;54.66
77572;BME280;67214;47.454;18.966;2023-10-13T11:23:14;100431.89;;;25.47;54.60
77572;BME280;67214;47.454;18.966;2023-10-13T11:25:42;100441.28;;;25.44;54.79
77572;BME280;67214;47.454;18.966;2023-10-13T11:28:15;100427.90;;;25.50;54.57
77572;BME280;67214;47.454;18.966;2023-10-13T11:30:45;100432.53;;;25.78;55.16
77572;BME280;67214;47.454;18.966;2023-10-13T11:33:17;100429.76;;;25.91;54.58
77572;BME280;67214;47.454;18.966;2023-10-13T11:35:48;100430.52;;;26.43;52.96
77572;BME280;67214;47.454;18.966;2023-10-13T11:38:18;100428.84;;;26.82;51.95
77572;BME280;67214;47.454;18.966;2023-10-13T11:41:01;100422.89;;;27.07;50.97
77572;BME280;67214;47.454;18.966;2023-10-13T11:46:11;100428.36;;;27.16;50.05
77572;BME280;67214;47.454;18.966;2023-10-13T11:48:41;100421.92;;;27.20;50.22
77572;BME280;67214;47.454;18.966;2023-10-13T11:51:15;100425.96;;;27.26;49.90
77572;BME280;67214;47.454;18.966;2023-10-13T11:53:57;100422.31;;;27.33;50.52
77572;BME280;67214;47.454;18.966;2023-10-13T11:56:24;100422.40;;;27.26;50.30
77572;BME280;67214;47.454;18.966;2023-10-13T11:58:52;100422.00;;;27.13;50.29
77572;BME280;67214;47.454;18.966;2023-10-13T12:01:19;100412.55;;;27.25;50.15
77572;BME280;67214;47.454;18.966;2023-10-13T12:03:49;100417.92;;;27.32;49.46
77572;BME280;67214;47.454;18.966;2023-10-13T12:06:35;100415.73;;;27.22;49.32
77572;BME280;67214;47.454;18.966;2023-10-13T12:09:06;100413.93;;;27.34;49.14
77572;BME280;67214;47.454;18.966;2023-10-13T12:11:49;100408.11;;;27.31;49.08
77572;BME280;67214;47.454;18.966;2023-10-13T12:14:21;100392.11;;;27.43;48.67
77572;BME280;67214;47.454;18.966;2023-10-13T12:16:50;100390.63;;;27.47;47.74
77572;BME280;67214;47.454;18.966;2023-10-13T12:19:22;100392.61;;;27.58;47.49
77572;BME280;67214;47.454;18.966;2023-10-13T12:21:57;100390.47;;;27.42;49.62
77572;BME280;67214;47.454;18.966;2023-10-13T12:24:29;100386.75;;;27.73;46.30
77572;BME280;67214;47.454;18.966;2023-10-13T12:27:09;100376.51;;;27.87;46.99
77572;BME280;67214;47.454;18.966;2023-10-13T12:29:46;100375.02;;;28.02;47.41
77572;BME280;67214;47.454;18.966;2023-10-13T12:32:14;100379.55;;;28.17;45.92
77572;BME280;67214;47.454;18.966;2023-10-13T12:34:45;100370.61;;;28.20;45.18
77572;BME280;67214;47.454;18.966;2023-10-13T12:37:32;100372.31;;;28.11;45.20
77572;BME280;67214;47.454;18.966;2023-10-13T12:40:14;100370.57;;;27.99;44.28
77572;BME280;67214;47.454;18.966;2023-10-13T12:43:01;100373.14;;;28.12;44.38
77572;BME280;67214;47.454;18.966;2023-10-13T12:45:49;100360.22;;;28.40;44.24
77572;BME280;67214;47.454;18.966;2023-10-13T12:48:36;100361.77;;;28.59;42.47
77572;BME280;67214;47.454;18.966;2023-10-13T12:51:23;100358.95;;;28.45;41.19
77572;BME280;67214;47.454;18.966;2023-10-13T12:54:02;100361.94;;;27.93;41.75
77572;BME280;67214;47.454;18.966;2023-10-13T12:56:34;100353.59;;;28.27;39.40
77572;BME280;67214;47.454;18.966;2023-10-13T12:59:03;100355.41;;;27.64;40.01
77572;BME280;67214;47.454;18.966;2023-10-13T13:01:32;100347.20;;;27.82;39.54
77572;BME280;67214;47.454;18.966;2023-10-13T13:04:00;100354.27;;;28.10;39.76
77572;BME280;67214;47.454;18.966;2023-10-13T13:06:29;100345.75;;;27.59;41.79
77572;BME280;67214;47.454;18.966;2023-10-13T13:08:58;100345.80;;;27.70;42.40
77572;BME280;67214;47.454;18.966;2023-10-13T13:11:26;100344.55;;;28.35;41.15
77572;BME280;67214;47.454;18.966;2023-10-13T13:13:57;100346.92;;;28.43;41.27
77572;BME280;67214;47.454;18.966;2023-10-13T13:16:24;100339.73;;;30.46;36.68
77572;BME280;67214;47.454;18.966;2023-10-13T13:18:53;100339.20;;;30.99;34.31
77572;BME280;67214;47.454;18.966;2023-10-13T13:21:21;100336.55;;;31.94;32.56
77572;BME280;67214;47.454;18.966;2023-10-13T13:23:50;100330.54;;;32.95;30.93
77572;BME280;67214;47.454;18.966;2023-10-13T13:26:20;100326.32;;;34.77;28.91
77572;BME280;67214;47.454;18.966;2023-10-13T13:28:49;100325.35;;;35.37;28.45
77572;BME280;67214;47.454;18.966;2023-10-13T13:31:22;100321.92;;;35.63;28.10
77572;BME280;67214;47.454;18.966;2023-10-13T13:33:56;100333.18;;;35.00;27.39